Aviation Digital Data Service (ADDS)

Output produced by METARs form (0148 UTC 17 October 2017)
found at http://www.aviationweather.gov/adds/metars/
 
METAR text: KLBE 170145Z 00000KT 10SM SKC 07/02 A3029
Conditions at: KLBE (LATROBE/WESTMORL, PA, US) observed 0145 UTC 17 October 2017
Temperature: 7.0°C (45°F)
Dewpoint: 2.0°C (36°F) [RH = 70%]
Pressure (altimeter): 30.29 inches Hg (1025.8 mb)
Winds: calm
Visibility: 10 or more miles (16+ km)
Ceiling: at least 12,000 feet AGL
Clouds: clear skies
Weather: no significant weather observed at this time

METAR text: KLBE 170045Z 34005KT 10SM FEW060 08/02 A3027
Conditions at: KLBE (LATROBE/WESTMORL, PA, US) observed 0045 UTC 17 October 2017
Temperature: 8.0°C (46°F)
Dewpoint: 2.0°C (36°F) [RH = 66%]
Pressure (altimeter): 30.27 inches Hg (1025.1 mb)
Winds: from the NNW (340 degrees) at 6 MPH (5 knots; 2.6 m/s)
Visibility: 10 or more miles (16+ km)
Ceiling: at least 12,000 feet AGL
Clouds: few clouds at 6000 feet AGL
Weather: no significant weather observed at this time

METAR text: KLBE 162345Z 33005KT 10SM SCT080 10/02 A3026
Conditions at: KLBE (LATROBE/WESTMORL, PA, US) observed 2345 UTC 16 October 2017
Temperature: 10.0°C (50°F)
Dewpoint: 2.0°C (36°F) [RH = 57%]
Pressure (altimeter): 30.26 inches Hg (1024.8 mb)
Winds: from the NNW (330 degrees) at 6 MPH (5 knots; 2.6 m/s)
Visibility: 10 or more miles (16+ km)
Ceiling: at least 12,000 feet AGL
Clouds: scattered clouds at 8000 feet AGL
Weather: no significant weather observed at this time

METAR text: KLBE 162245Z 31005KT 10SM SCT080 10/00 A3024
Conditions at: KLBE (LATROBE/WESTMORL, PA, US) observed 2245 UTC 16 October 2017
Temperature: 10.0°C (50°F)
Dewpoint: 0.0°C (32°F) [RH = 50%]
Pressure (altimeter): 30.24 inches Hg (1024.1 mb)
Winds: from the NW (310 degrees) at 6 MPH (5 knots; 2.6 m/s)
Visibility: 10 or more miles (16+ km)
Ceiling: at least 12,000 feet AGL
Clouds: scattered clouds at 8000 feet AGL
Weather: no significant weather observed at this time

METAR text: KLBE 162157Z 31007KT 10SM SCT080 12/01 A3022
Conditions at: KLBE (LATROBE/WESTMORL, PA, US) observed 2157 UTC 16 October 2017
Temperature: 12.0°C (54°F)
Dewpoint: 1.0°C (34°F) [RH = 47%]
Pressure (altimeter): 30.22 inches Hg (1023.5 mb)
Winds: from the NW (310 degrees) at 8 MPH (7 knots; 3.6 m/s)
Visibility: 10 or more miles (16+ km)
Ceiling: at least 12,000 feet AGL
Clouds: scattered clouds at 8000 feet AGL
Weather: no significant weather observed at this time

METAR text: KLBE 162045Z 29010 10SM SCT080 13/00 A3021
Conditions at: KLBE (LATROBE/WESTMORL, PA, US) observed 2045 UTC 16 October 2017
Temperature: 13.0°C (55°F)
Dewpoint: 0.0°C (32°F) [RH = 41%]
Pressure (altimeter): 30.21 inches Hg (1023.1 mb)
Winds: from the WNW (290 degrees) at 12 MPH (10 knots; 5.2 m/s)
Visibility: 10 or more miles (16+ km)
Ceiling: at least 12,000 feet AGL
Clouds: scattered clouds at 8000 feet AGL
Weather: no significant weather observed at this time

METAR text: KLBE 161945Z 30010KT 10SM FEW050 13/00 A3021
Conditions at: KLBE (LATROBE/WESTMORL, PA, US) observed 1945 UTC 16 October 2017
Temperature: 13.0°C (55°F)
Dewpoint: 0.0°C (32°F) [RH = 41%]
Pressure (altimeter): 30.21 inches Hg (1023.1 mb)
Winds: from the WNW (300 degrees) at 12 MPH (10 knots; 5.2 m/s)
Visibility: 10 or more miles (16+ km)
Ceiling: at least 12,000 feet AGL
Clouds: few clouds at 5000 feet AGL
Weather: no significant weather observed at this time

METAR text: KLBE 161855Z 30014KT 10SM SCT050 13/02 A3021
Conditions at: KLBE (LATROBE/WESTMORL, PA, US) observed 1855 UTC 16 October 2017
Temperature: 13.0°C (55°F)
Dewpoint: 2.0°C (36°F) [RH = 47%]
Pressure (altimeter): 30.21 inches Hg (1023.1 mb)
Winds: from the WNW (300 degrees) at 16 MPH (14 knots; 7.3 m/s)
Visibility: 10 or more miles (16+ km)
Ceiling: at least 12,000 feet AGL
Clouds: scattered clouds at 5000 feet AGL
Weather: no significant weather observed at this time

METAR text: KLBE 161750Z 35010KT 10SM BKN050 12/03 A3022
Conditions at: KLBE (LATROBE/WESTMORL, PA, US) observed 1750 UTC 16 October 2017
Temperature: 12.0°C (54°F)
Dewpoint: 3.0°C (37°F) [RH = 54%]
Pressure (altimeter): 30.22 inches Hg (1023.5 mb)
Winds: from the N (350 degrees) at 12 MPH (10 knots; 5.2 m/s)
Visibility: 10 or more miles (16+ km)
Ceiling: 5000 feet AGL
Clouds: broken clouds at 5000 feet AGL
Weather: no significant weather observed at this time

METAR text: KLBE 161650Z 34015KT 10SM BKN045 12/03 A3023
Conditions at: KLBE (LATROBE/WESTMORL, PA, US) observed 1650 UTC 16 October 2017
Temperature: 12.0°C (54°F)
Dewpoint: 3.0°C (37°F) [RH = 54%]
Pressure (altimeter): 30.23 inches Hg (1023.8 mb)
Winds: from the NNW (340 degrees) at 17 MPH (15 knots; 7.8 m/s)
Visibility: 10 or more miles (16+ km)
Ceiling: 4500 feet AGL
Clouds: broken clouds at 4500 feet AGL
Weather: no significant weather observed at this time

METAR text: KLBE 161550Z 34015KT 10SM BKN039 11/03 A3022
Conditions at: KLBE (LATROBE/WESTMORL, PA, US) observed 1550 UTC 16 October 2017
Temperature: 11.0°C (52°F)
Dewpoint: 3.0°C (37°F) [RH = 58%]
Pressure (altimeter): 30.22 inches Hg (1023.5 mb)
Winds: from the NNW (340 degrees) at 17 MPH (15 knots; 7.8 m/s)
Visibility: 10 or more miles (16+ km)
Ceiling: 3900 feet AGL
Clouds: broken clouds at 3900 feet AGL
Weather: no significant weather observed at this time

METAR text: KLBE 161450Z 36015KT 10SM BKN035 12/04 A3021
Conditions at: KLBE (LATROBE/WESTMORL, PA, US) observed 1450 UTC 16 October 2017
Temperature: 12.0°C (54°F)
Dewpoint: 4.0°C (39°F) [RH = 58%]
Pressure (altimeter): 30.21 inches Hg (1023.1 mb)
Winds: from the N (360 degrees) at 17 MPH (15 knots; 7.8 m/s)
Visibility: 10 or more miles (16+ km)
Ceiling: 3500 feet AGL
Clouds: broken clouds at 3500 feet AGL
Weather: no significant weather observed at this time

METAR text: KLBE 161345Z 32005KT 10SM BKN046 09/05 A3020
Conditions at: KLBE (LATROBE/WESTMORL, PA, US) observed 1345 UTC 16 October 2017
Temperature: 9.0°C (48°F)
Dewpoint: 5.0°C (41°F) [RH = 76%]
Pressure (altimeter): 30.20 inches Hg (1022.8 mb)
Winds: from the NW (320 degrees) at 6 MPH (5 knots; 2.6 m/s)
Visibility: 10 or more miles (16+ km)
Ceiling: 4600 feet AGL
Clouds: broken clouds at 4600 feet AGL
Weather: no significant weather observed at this time

METAR text: KLBE 161245Z 32005KT 10SM BKN042 09/04 A3019
Conditions at: KLBE (LATROBE/WESTMORL, PA, US) observed 1245 UTC 16 October 2017
Temperature: 9.0°C (48°F)
Dewpoint: 4.0°C (39°F) [RH = 71%]
Pressure (altimeter): 30.19 inches Hg (1022.4 mb)
Winds: from the NW (320 degrees) at 6 MPH (5 knots; 2.6 m/s)
Visibility: 10 or more miles (16+ km)
Ceiling: 4200 feet AGL
Clouds: broken clouds at 4200 feet AGL
Weather: no significant weather observed at this time

METAR text: KLBE 161145Z 33005KT 10SM SCT044 08/04 A3016
Conditions at: KLBE (LATROBE/WESTMORL, PA, US) observed 1145 UTC 16 October 2017
Temperature: 8.0°C (46°F)
Dewpoint: 4.0°C (39°F) [RH = 76%]
Pressure (altimeter): 30.16 inches Hg (1021.4 mb)
Winds: from the NNW (330 degrees) at 6 MPH (5 knots; 2.6 m/s)
Visibility: 10 or more miles (16+ km)
Ceiling: at least 12,000 feet AGL
Clouds: scattered clouds at 4400 feet AGL
Weather: no significant weather observed at this time

METAR text: KLBE 161045Z 32007KT 10SM OVC048 09/05 A3013
Conditions at: KLBE (LATROBE/WESTMORL, PA, US) observed 1045 UTC 16 October 2017
Temperature: 9.0°C (48°F)
Dewpoint: 5.0°C (41°F) [RH = 76%]
Pressure (altimeter): 30.13 inches Hg (1020.4 mb)
Winds: from the NW (320 degrees) at 8 MPH (7 knots; 3.6 m/s)
Visibility: 10 or more miles (16+ km)
Ceiling: 4800 feet AGL
Clouds: overcast cloud deck at 4800 feet AGL
Weather: no significant weather observed at this time

METAR text: KLBE 160955Z AUTO 32009KT 10SM FEW021 OVC050 10/05 A3011 RMK AO2
Conditions at: KLBE (LATROBE/WESTMORL, PA, US) observed 0955 UTC 16 October 2017
Temperature: 10.0°C (50°F)
Dewpoint: 5.0°C (41°F) [RH = 71%]
Pressure (altimeter): 30.11 inches Hg (1019.7 mb)
Winds: from the NW (320 degrees) at 10 MPH (9 knots; 4.7 m/s)
Visibility: 10 or more miles (16+ km)
Ceiling: 5000 feet AGL
Clouds: few clouds at 2100 feet AGL
overcast cloud deck at 5000 feet AGL
Weather: automated observation with no human augmentation;
there may or may not be significant weather present at this time

METAR text: KLBE 160935Z AUTO 31007KT 10SM FEW021 SCT027 OVC050 10/07 A3011 RMK AO2
Conditions at: KLBE (LATROBE/WESTMORL, PA, US) observed 0935 UTC 16 October 2017
Temperature: 10.0°C (50°F)
Dewpoint: 7.0°C (45°F) [RH = 82%]
Pressure (altimeter): 30.11 inches Hg (1019.7 mb)
Winds: from the NW (310 degrees) at 8 MPH (7 knots; 3.6 m/s)
Visibility: 10 or more miles (16+ km)
Ceiling: 5000 feet AGL
Clouds: few clouds at 2100 feet AGL
scattered clouds at 2700 feet AGL
overcast cloud deck at 5000 feet AGL
Weather: automated observation with no human augmentation;
there may or may not be significant weather present at this time

METAR text: KLBE 160915Z AUTO 33007KT 10SM FEW021 SCT046 OVC050 10/07 A3010 RMK AO2
Conditions at: KLBE (LATROBE/WESTMORL, PA, US) observed 0915 UTC 16 October 2017
Temperature: 10.0°C (50°F)
Dewpoint: 7.0°C (45°F) [RH = 82%]
Pressure (altimeter): 30.10 inches Hg (1019.4 mb)
Winds: from the NNW (330 degrees) at 8 MPH (7 knots; 3.6 m/s)
Visibility: 10 or more miles (16+ km)
Ceiling: 5000 feet AGL
Clouds: few clouds at 2100 feet AGL
scattered clouds at 4600 feet AGL
overcast cloud deck at 5000 feet AGL
Weather: automated observation with no human augmentation;
there may or may not be significant weather present at this time

METAR text: KLBE 160855Z AUTO 32009KT 270V330 10SM SCT021 BKN048 OVC050 10/08 A3009 RMK AO2
Conditions at: KLBE (LATROBE/WESTMORL, PA, US) observed 0855 UTC 16 October 2017
Temperature: 10.0°C (50°F)
Dewpoint: 8.0°C (46°F) [RH = 87%]
Pressure (altimeter): 30.09 inches Hg (1019.0 mb)
Winds: from the NW (320 degrees) at 10 MPH (9 knots; 4.7 m/s)
Visibility: 10 or more miles (16+ km)
Ceiling: 4800 feet AGL
Clouds: scattered clouds at 2100 feet AGL
broken clouds at 4800 feet AGL
overcast cloud deck at 5000 feet AGL
Weather: automated observation with no human augmentation;
there may or may not be significant weather present at this time

METAR text: KLBE 160835Z AUTO 29005KT 10SM OVC050 10/08 A3009 RMK AO2
Conditions at: KLBE (LATROBE/WESTMORL, PA, US) observed 0835 UTC 16 October 2017
Temperature: 10.0°C (50°F)
Dewpoint: 8.0°C (46°F) [RH = 87%]
Pressure (altimeter): 30.09 inches Hg (1019.0 mb)
Winds: from the WNW (290 degrees) at 6 MPH (5 knots; 2.6 m/s)
Visibility: 10 or more miles (16+ km)
Ceiling: 5000 feet AGL
Clouds: overcast cloud deck at 5000 feet AGL
Weather: automated observation with no human augmentation;
there may or may not be significant weather present at this time

METAR text: KLBE 160815Z AUTO 32007KT 10SM OVC050 10/08 A3008 RMK AO2
Conditions at: KLBE (LATROBE/WESTMORL, PA, US) observed 0815 UTC 16 October 2017
Temperature: 10.0°C (50°F)
Dewpoint: 8.0°C (46°F) [RH = 87%]
Pressure (altimeter): 30.08 inches Hg (1018.7 mb)
Winds: from the NW (320 degrees) at 8 MPH (7 knots; 3.6 m/s)
Visibility: 10 or more miles (16+ km)
Ceiling: 5000 feet AGL
Clouds: overcast cloud deck at 5000 feet AGL
Weather: automated observation with no human augmentation;
there may or may not be significant weather present at this time

METAR text: KLBE 160755Z AUTO 31008G14KT 10SM FEW038 OVC047 10/08 A3008 RMK AO2
Conditions at: KLBE (LATROBE/WESTMORL, PA, US) observed 0755 UTC 16 October 2017
Temperature: 10.0°C (50°F)
Dewpoint: 8.0°C (46°F) [RH = 87%]
Pressure (altimeter): 30.08 inches Hg (1018.7 mb)
Winds: from the NW (310 degrees) at 9 MPH (8 knots; 4.2 m/s)
gusting to 16 MPH (14 knots; 7.3 m/s)
Visibility: 10 or more miles (16+ km)
Ceiling: 4700 feet AGL
Clouds: few clouds at 3800 feet AGL
overcast cloud deck at 4700 feet AGL
Weather: automated observation with no human augmentation;
there may or may not be significant weather present at this time

METAR text: KLBE 160735Z AUTO 30010KT 10SM SCT026 BKN038 OVC050 11/08 A3008 RMK AO2
Conditions at: KLBE (LATROBE/WESTMORL, PA, US) observed 0735 UTC 16 October 2017
Temperature: 11.0°C (52°F)
Dewpoint: 8.0°C (46°F) [RH = 82%]
Pressure (altimeter): 30.08 inches Hg (1018.7 mb)
Winds: from the WNW (300 degrees) at 12 MPH (10 knots; 5.2 m/s)
Visibility: 10 or more miles (16+ km)
Ceiling: 3800 feet AGL
Clouds: scattered clouds at 2600 feet AGL
broken clouds at 3800 feet AGL
overcast cloud deck at 5000 feet AGL
Weather: automated observation with no human augmentation;
there may or may not be significant weather present at this time

METAR text: KLBE 160715Z AUTO 32010KT 10SM SCT020 OVC026 12/08 A3007 RMK AO2
Conditions at: KLBE (LATROBE/WESTMORL, PA, US) observed 0715 UTC 16 October 2017
Temperature: 12.0°C (54°F)
Dewpoint: 8.0°C (46°F) [RH = 76%]
Pressure (altimeter): 30.07 inches Hg (1018.4 mb)
Winds: from the NW (320 degrees) at 12 MPH (10 knots; 5.2 m/s)
Visibility: 10 or more miles (16+ km)
Ceiling: 2600 feet AGL
Clouds: scattered clouds at 2000 feet AGL
overcast cloud deck at 2600 feet AGL
Weather: automated observation with no human augmentation;
there may or may not be significant weather present at this time

METAR text: KLBE 160655Z AUTO 30006KT 10SM -RA BKN022 BKN029 OVC037 12/10 A3007 RMK AO2
Conditions at: KLBE (LATROBE/WESTMORL, PA, US) observed 0655 UTC 16 October 2017
Temperature: 12.0°C (54°F)
Dewpoint: 10.0°C (50°F) [RH = 88%]
Pressure (altimeter): 30.07 inches Hg (1018.4 mb)
Winds: from the WNW (300 degrees) at 7 MPH (6 knots; 3.1 m/s)
Visibility: 10 or more miles (16+ km)
Ceiling: 2200 feet AGL
Clouds: broken clouds at 2200 feet AGL
broken clouds at 2900 feet AGL
overcast cloud deck at 3700 feet AGL
Weather: -RA  (light rain)

METAR text: KLBE 160635Z AUTO 25007KT 10SM FEW025 SCT029 OVC036 12/10 A3006 RMK AO2
Conditions at: KLBE (LATROBE/WESTMORL, PA, US) observed 0635 UTC 16 October 2017
Temperature: 12.0°C (54°F)
Dewpoint: 10.0°C (50°F) [RH = 88%]
Pressure (altimeter): 30.06 inches Hg (1018.0 mb)
Winds: from the WSW (250 degrees) at 8 MPH (7 knots; 3.6 m/s)
Visibility: 10 or more miles (16+ km)
Ceiling: 3600 feet AGL
Clouds: few clouds at 2500 feet AGL
scattered clouds at 2900 feet AGL
overcast cloud deck at 3600 feet AGL
Weather: automated observation with no human augmentation;
there may or may not be significant weather present at this time

METAR text: KLBE 160615Z AUTO 25006KT 10SM SCT026 BKN036 OVC055 12/10 A3006 RMK AO2
Conditions at: KLBE (LATROBE/WESTMORL, PA, US) observed 0615 UTC 16 October 2017
Temperature: 12.0°C (54°F)
Dewpoint: 10.0°C (50°F) [RH = 88%]
Pressure (altimeter): 30.06 inches Hg (1018.0 mb)
Winds: from the WSW (250 degrees) at 7 MPH (6 knots; 3.1 m/s)
Visibility: 10 or more miles (16+ km)
Ceiling: 3600 feet AGL
Clouds: scattered clouds at 2600 feet AGL
broken clouds at 3600 feet AGL
overcast cloud deck at 5500 feet AGL
Weather: automated observation with no human augmentation;
there may or may not be significant weather present at this time

METAR text: KLBE 160555Z AUTO 25007KT 10SM SCT028 SCT032 OVC055 13/10 A3006 RMK AO2
Conditions at: KLBE (LATROBE/WESTMORL, PA, US) observed 0555 UTC 16 October 2017
Temperature: 13.0°C (55°F)
Dewpoint: 10.0°C (50°F) [RH = 82%]
Pressure (altimeter): 30.06 inches Hg (1018.0 mb)
Winds: from the WSW (250 degrees) at 8 MPH (7 knots; 3.6 m/s)
Visibility: 10 or more miles (16+ km)
Ceiling: 5500 feet AGL
Clouds: scattered clouds at 2800 feet AGL
scattered clouds at 3200 feet AGL
overcast cloud deck at 5500 feet AGL
Weather: automated observation with no human augmentation;
there may or may not be significant weather present at this time

METAR text: KLBE 160535Z AUTO 26006KT 10SM FEW023 SCT032 BKN050 13/10 A3005 RMK AO2
Conditions at: KLBE (LATROBE/WESTMORL, PA, US) observed 0535 UTC 16 October 2017
Temperature: 13.0°C (55°F)
Dewpoint: 10.0°C (50°F) [RH = 82%]
Pressure (altimeter): 30.05 inches Hg (1017.7 mb)
Winds: from the W (260 degrees) at 7 MPH (6 knots; 3.1 m/s)
Visibility: 10 or more miles (16+ km)
Ceiling: 5000 feet AGL
Clouds: few clouds at 2300 feet AGL
scattered clouds at 3200 feet AGL
broken clouds at 5000 feet AGL
Weather: automated observation with no human augmentation;
there may or may not be significant weather present at this time

METAR text: KLBE 160515Z AUTO 25010KT 10SM FEW023 SCT029 BKN050 13/10 A3004 RMK AO2
Conditions at: KLBE (LATROBE/WESTMORL, PA, US) observed 0515 UTC 16 October 2017
Temperature: 13.0°C (55°F)
Dewpoint: 10.0°C (50°F) [RH = 82%]
Pressure (altimeter): 30.04 inches Hg (1017.4 mb)
Winds: from the WSW (250 degrees) at 12 MPH (10 knots; 5.2 m/s)
Visibility: 10 or more miles (16+ km)
Ceiling: 5000 feet AGL
Clouds: few clouds at 2300 feet AGL
scattered clouds at 2900 feet AGL
broken clouds at 5000 feet AGL
Weather: automated observation with no human augmentation;
there may or may not be significant weather present at this time

METAR text: KLBE 160455Z AUTO 27006KT 10SM FEW037 BKN050 13/10 A3004 RMK AO2
Conditions at: KLBE (LATROBE/WESTMORL, PA, US) observed 0455 UTC 16 October 2017
Temperature: 13.0°C (55°F)
Dewpoint: 10.0°C (50°F) [RH = 82%]
Pressure (altimeter): 30.04 inches Hg (1017.4 mb)
Winds: from the W (270 degrees) at 7 MPH (6 knots; 3.1 m/s)
Visibility: 10 or more miles (16+ km)
Ceiling: 5000 feet AGL
Clouds: few clouds at 3700 feet AGL
broken clouds at 5000 feet AGL
Weather: automated observation with no human augmentation;
there may or may not be significant weather present at this time

METAR text: KLBE 160435Z AUTO 28005KT 10SM FEW031 SCT050 13/10 A3003 RMK AO2
Conditions at: KLBE (LATROBE/WESTMORL, PA, US) observed 0435 UTC 16 October 2017
Temperature: 13.0°C (55°F)
Dewpoint: 10.0°C (50°F) [RH = 82%]
Pressure (altimeter): 30.03 inches Hg (1017.0 mb)
Winds: from the W (280 degrees) at 6 MPH (5 knots; 2.6 m/s)
Visibility: 10 or more miles (16+ km)
Ceiling: at least 12,000 feet AGL
Clouds: few clouds at 3100 feet AGL
scattered clouds at 5000 feet AGL
Weather: automated observation with no human augmentation;
there may or may not be significant weather present at this time

METAR text: KLBE 160415Z AUTO 28006KT 10SM FEW032 BKN050 13/10 A3003 RMK AO2
Conditions at: KLBE (LATROBE/WESTMORL, PA, US) observed 0415 UTC 16 October 2017
Temperature: 13.0°C (55°F)
Dewpoint: 10.0°C (50°F) [RH = 82%]
Pressure (altimeter): 30.03 inches Hg (1017.0 mb)
Winds: from the W (280 degrees) at 7 MPH (6 knots; 3.1 m/s)
Visibility: 10 or more miles (16+ km)
Ceiling: 5000 feet AGL
Clouds: few clouds at 3200 feet AGL
broken clouds at 5000 feet AGL
Weather: automated observation with no human augmentation;
there may or may not be significant weather present at this time

METAR text: KLBE 160355Z AUTO 28006KT 10SM FEW032 SCT048 BKN085 14/10 A3002 RMK AO2
Conditions at: KLBE (LATROBE/WESTMORL, PA, US) observed 0355 UTC 16 October 2017
Temperature: 14.0°C (57°F)
Dewpoint: 10.0°C (50°F) [RH = 77%]
Pressure (altimeter): 30.02 inches Hg (1016.7 mb)
Winds: from the W (280 degrees) at 7 MPH (6 knots; 3.1 m/s)
Visibility: 10 or more miles (16+ km)
Ceiling: 8500 feet AGL
Clouds: few clouds at 3200 feet AGL
scattered clouds at 4800 feet AGL
broken clouds at 8500 feet AGL
Weather: automated observation with no human augmentation;
there may or may not be significant weather present at this time

METAR text: KLBE 160335Z AUTO 27006KT 10SM SCT046 OVC085 14/12 A3001 RMK AO2
Conditions at: KLBE (LATROBE/WESTMORL, PA, US) observed 0335 UTC 16 October 2017
Temperature: 14.0°C (57°F)
Dewpoint: 12.0°C (54°F) [RH = 88%]
Pressure (altimeter): 30.01 inches Hg (1016.3 mb)
Winds: from the W (270 degrees) at 7 MPH (6 knots; 3.1 m/s)
Visibility: 10 or more miles (16+ km)
Ceiling: 8500 feet AGL
Clouds: scattered clouds at 4600 feet AGL
overcast cloud deck at 8500 feet AGL
Weather: automated observation with no human augmentation;
there may or may not be significant weather present at this time

METAR text: KLBE 160315Z AUTO 26004KT 10SM OVC046 14/12 A3000 RMK AO2
Conditions at: KLBE (LATROBE/WESTMORL, PA, US) observed 0315 UTC 16 October 2017
Temperature: 14.0°C (57°F)
Dewpoint: 12.0°C (54°F) [RH = 88%]
Pressure (altimeter): 30.00 inches Hg (1016.0 mb)
Winds: from the W (260 degrees) at 5 MPH (4 knots; 2.1 m/s)
Visibility: 10 or more miles (16+ km)
Ceiling: 4600 feet AGL
Clouds: overcast cloud deck at 4600 feet AGL
Weather: automated observation with no human augmentation;
there may or may not be significant weather present at this time

METAR text: KLBE 160255Z AUTO 30005KT 10SM SCT043 BKN048 BKN095 14/13 A3000 RMK AO2 LTG DSNT N
Conditions at: KLBE (LATROBE/WESTMORL, PA, US) observed 0255 UTC 16 October 2017
Temperature: 14.0°C (57°F)
Dewpoint: 13.0°C (55°F) [RH = 94%]
Pressure (altimeter): 30.00 inches Hg (1016.0 mb)
Winds: from the WNW (300 degrees) at 6 MPH (5 knots; 2.6 m/s)
Visibility: 10 or more miles (16+ km)
Ceiling: 4800 feet AGL
Clouds: scattered clouds at 4300 feet AGL
broken clouds at 4800 feet AGL
broken clouds at 9500 feet AGL
Weather: automated observation with no human augmentation;
there may or may not be significant weather present at this time

METAR text: KLBE 160235Z AUTO 30009KT 10SM FEW037 BKN048 OVC080 15/13 A3000 RMK AO2
Conditions at: KLBE (LATROBE/WESTMORL, PA, US) observed 0235 UTC 16 October 2017
Temperature: 15.0°C (59°F)
Dewpoint: 13.0°C (55°F) [RH = 88%]
Pressure (altimeter): 30.00 inches Hg (1016.0 mb)
Winds: from the WNW (300 degrees) at 10 MPH (9 knots; 4.7 m/s)
Visibility: 10 or more miles (16+ km)
Ceiling: 4800 feet AGL
Clouds: few clouds at 3700 feet AGL
broken clouds at 4800 feet AGL
overcast cloud deck at 8000 feet AGL
Weather: automated observation with no human augmentation;
there may or may not be significant weather present at this time

METAR text: KLBE 160215Z AUTO 25005KT 10SM OVC080 15/13 A2999 RMK AO2
Conditions at: KLBE (LATROBE/WESTMORL, PA, US) observed 0215 UTC 16 October 2017
Temperature: 15.0°C (59°F)
Dewpoint: 13.0°C (55°F) [RH = 88%]
Pressure (altimeter): 29.99 inches Hg (1015.7 mb)
Winds: from the WSW (250 degrees) at 6 MPH (5 knots; 2.6 m/s)
Visibility: 10 or more miles (16+ km)
Ceiling: 8000 feet AGL
Clouds: overcast cloud deck at 8000 feet AGL
Weather: automated observation with no human augmentation;
there may or may not be significant weather present at this time

METAR text: KLBE 160150Z 31010KT 10SM BKN035 15/14 A2998
Conditions at: KLBE (LATROBE/WESTMORL, PA, US) observed 0150 UTC 16 October 2017
Temperature: 15.0°C (59°F)
Dewpoint: 14.0°C (57°F) [RH = 94%]
Pressure (altimeter): 29.98 inches Hg (1015.3 mb)
Winds: from the NW (310 degrees) at 12 MPH (10 knots; 5.2 m/s)
Visibility: 10 or more miles (16+ km)
Ceiling: 3500 feet AGL
Clouds: broken clouds at 3500 feet AGL
Weather: no significant weather observed at this time